Startpagina
METAR-TAF:

METAR-TAF

Vliegvelden :

Šiauliai, Litouwen

breedte: 55-53-38N, lengte: 023-23-42E, hoogte: 135 m

Actueel weer

Dit bericht is 7 minuten geleden gemaakt, om 13:50 UTC
Wind 17 kt uit het zuidoosten
Temperatuur -1°C
Vochtigheid 74%
Druk 1026 hPa
Zicht 10 km of meer
geen wolken onder 1500 m en geen cumulonimbus

METAR: EYSA 221350Z 14017KT CAVOK M01/M05 Q1026 R14R/09//95 BLU NOSIG

Tijdstip: 15:57 (13:57 UTC)

Verwachting

Dit bericht is 2 uur en het 52 minuten geleden gemaakt, om 11:05 UTC
Verwachting geldig van 22 om 12 UTC tot 22 om 21 UTC
Wind 18 kt uit het zuidoosten
Zicht: 9000 m
Gebroken wolken op 2000 ft
Wijzigt naar
van 22 om 18 UTC tot 22 om 19 UTC

TAF: EYSA 221105Z 2212/2221 14018KT 9000 BKN020 BECMG 2218/2219 NSC

Waarnemingen en weersverwachtingen van meer dan 4000 vliegvelden (METAR en TAF).

De beschikbare stations zijn de gele en rode punten op de kaart.

Ga met uw muis naar het station om de naam te zien.

Klik dan om waarnemingen en weersverwachtingen te zien.

kaart wijzigen: klik op de groene knoppen met een zwart kruis om in te zoomen, op de groene knop met een streepje om uit te zoomen of op de groene pijlen voor aangrenzende kaarten.


METAR-TAF: